Detall de PIREP

Printer-friendly versionPDF version

[2009/10/21 19:41:00]
Flight IATA:CT2104
Pilot Number:041
Company ICAO:CAT
Aircraft Type:F50/A
PAX:30
Departing Airport: LEVC
Destination Airport: LEBB
Alternate Airport:LEVT
Online: VATSIM
Route:CENTA2B A33 PRADO A33 CJN A33 HORTA B11 RBO B11 OSTIX B11 GASMO B11 DGO B11 VRA B11 BLV MAPAX1K
Flight Level:FL190
No Slew and time accel
No pause
Crash detect
Detect pilot in Cockpit between each 30 and 45 minutes
19:41 Zero fuel Weight: 35103 Lbs, Fuel Weight: 4486 Lbs
19:41 VATSIM:LEVC 211930Z VRB05KT 9999 FEW025 SCT040 17/09 Q1005 NOSIG
19:41 VATSIM:LEBB 211930Z 14006KT 110V180 CAVOK 16/06 Q0998 NOSIG
19:42 VOICE CATALONIAN
19:44 Parking Brakes off
19:56 Take-off
19:56 Take off Weight: 39432 Lbs
19:56 Wind: 065º @ 004 Knots Heading: 297º
19:56 POS N39º 29´ 30´´ W000º 29´ 16´´
19:56 Gear Up: 133 Knots
19:56 Flaps:1 at 133 Knots
19:58 Flaps:0 at 171 Knots
20:11 Wind:2
61º@034 Knots Heading: 293º Ground Speed: 191 Knots Altitude 14917 ft
20:14 TOC
20:14 Fuel Weight: 3693 Lb
20:26 Wind:290º@053 Knots Heading: 296º Ground Speed: 209 Knots Altitude 18756 ft
20:38 TOD
20:38 Fuel Weight: 2997 Lb
20:41 Wind:290º@053 Knots Heading: 358º Ground Speed: 246 Knots Altitude 17759 ft
20:56 Wind:291º@054 Knots Heading: 357º Ground Speed: 243 Knots Altitude 17614 ft
21:11 Wind:267º@039 Knots Heading: 346º Ground Speed: 259 Knots Altitude 17601 ft
21:26 Wind:204º@011 Knots Heading: 126º Ground Speed: 197 Knots Altitude 5872 ft
21:36 Flaps:1 at 164 Knots
21:37 Flaps:2 at 136 Knots
21:37 Flaps:3 at 136 Knots
21:37 Flaps:2 at 135 Knots
21:38 Flaps:3 at 134 Knots
21:39 Flaps:4 at 114 Knots
21:39 Gear Down: 106 Knots
21:41 Wind:202º@010 Knots Heading: 290º Ground Speed: 113 Knots Altitude 3274 ft
21:45 TouchDown:Rate -558 ft/min Speed: 93 Knots

21:45 VATSIM:LEBB 212130Z 20011KT 150V240 9999 FEW040 16/06 Q0998 NOSIG
21:45 Land
21:45 Wind:193º@007 Knots
21:45 Heading: 297º
21:45 Flight Duration: 01:49
21:45 Landing Weight: 36489 Lbs
21:45 POS N43º 18´ 08´´ W002º 54´ 51´´
21:50 Parking brakes on
21:50 Block to Block Duration: 02:06
21:50 Final Fuel: 1347 Lbls
21:50 Spent Fuel: 3139 Lbls
21:50 Flight Length: 393 NM
21:50 TOD Land Length: 248 NM

Exportar CSV

Powered by Drupal - Modified by Danger4k